createdAt,value
2022-11-05T00:02:11.019Z,13.04
2022-11-05T00:04:37.474Z,13.13
2022-11-05T00:07:20.082Z,13.18
2022-11-05T00:09:47.370Z,13.20
2022-11-05T00:12:14.360Z,13.20
2022-11-05T00:14:40.801Z,13.15
2022-11-05T00:17:07.252Z,13.14
2022-11-05T00:19:33.691Z,13.06
2022-11-05T00:22:00.157Z,13.10
2022-11-05T00:24:26.619Z,13.17
2022-11-05T00:26:53.052Z,13.17
2022-11-05T00:29:19.488Z,13.15
2022-11-05T00:31:45.934Z,13.14
2022-11-05T00:34:12.376Z,12.95
2022-11-05T00:36:38.931Z,12.81
2022-11-05T00:39:05.872Z,12.66
2022-11-05T00:41:32.338Z,12.70
2022-11-05T00:43:58.864Z,12.70
2022-11-05T00:46:25.397Z,12.73
2022-11-05T00:48:51.844Z,12.78
2022-11-05T00:51:18.354Z,12.80
2022-11-05T00:53:44.836Z,12.80
2022-11-05T00:56:11.638Z,12.53
2022-11-05T00:58:38.194Z,12.44
2022-11-05T01:01:05.737Z,12.54
2022-11-05T01:03:35.829Z,12.56
2022-11-05T01:06:13.817Z,12.54
2022-11-05T01:08:42.055Z,12.62
2022-11-05T01:11:11.482Z,12.64
2022-11-05T01:13:39.219Z,12.64
2022-11-05T01:16:10.055Z,12.74
2022-11-05T01:18:38.161Z,12.72
2022-11-05T01:21:14.664Z,12.77
2022-11-05T01:23:41.397Z,12.81
2022-11-05T01:26:07.963Z,12.75
2022-11-05T01:28:34.637Z,12.79
2022-11-05T01:31:01.165Z,12.82
2022-11-05T01:33:27.629Z,12.85
2022-11-05T01:35:54.097Z,12.78
2022-11-05T01:38:23.386Z,12.88
2022-11-05T01:40:49.843Z,12.84
2022-11-05T01:43:18.126Z,12.77
2022-11-05T01:45:49.869Z,12.80
2022-11-05T01:48:23.969Z,12.86
2022-11-05T01:51:08.497Z,12.82
2022-11-05T01:53:48.300Z,12.90
2022-11-05T01:56:21.844Z,12.95
2022-11-05T01:59:05.792Z,12.92
2022-11-05T02:01:33.486Z,12.88
2022-11-05T02:04:04.810Z,12.65
2022-11-05T02:06:37.032Z,12.62
2022-11-05T02:09:12.734Z,12.69
2022-11-05T02:11:39.357Z,12.73
2022-11-05T02:14:06.324Z,12.66
2022-11-05T02:16:56.448Z,12.80
2022-11-05T02:20:03.517Z,12.50
2022-11-05T02:22:38.715Z,12.44
2022-11-05T02:25:17.298Z,12.39
2022-11-05T02:28:17.748Z,12.08
2022-11-05T02:31:17.568Z,11.94
2022-11-05T02:34:00.797Z,11.88
2022-11-05T02:36:36.147Z,11.47
2022-11-05T02:39:30.796Z,11.85
2022-11-05T02:42:04.737Z,11.97
2022-11-05T02:44:48.767Z,11.97
2022-11-05T02:47:30.512Z,12.15
2022-11-05T02:50:08.952Z,12.07
2022-11-05T02:52:57.362Z,11.52
2022-11-05T02:55:37.056Z,10.92
2022-11-05T02:58:05.455Z,10.78
2022-11-05T03:00:35.125Z,10.86
2022-11-05T03:03:05.437Z,10.84
2022-11-05T03:06:09.402Z,11.06
2022-11-05T03:09:02.731Z,11.32
2022-11-05T03:11:35.856Z,11.34
2022-11-05T03:14:17.150Z,11.43
2022-11-05T03:16:54.125Z,11.59
2022-11-05T03:19:28.252Z,11.37
2022-11-05T03:22:07.290Z,10.95
2022-11-05T03:24:38.709Z,11.12
2022-11-05T03:27:13.486Z,11.26
2022-11-05T03:29:52.933Z,11.33
2022-11-05T03:32:22.105Z,11.47
2022-11-05T03:34:58.611Z,11.63
2022-11-05T03:37:32.249Z,11.54
2022-11-05T03:40:06.120Z,11.51
2022-11-05T03:42:38.587Z,11.62
2022-11-05T03:45:16.211Z,11.69
2022-11-05T03:47:47.580Z,11.83
2022-11-05T03:50:22.408Z,11.99
2022-11-05T03:52:53.895Z,12.02
2022-11-05T03:55:31.656Z,12.09
2022-11-05T03:57:59.445Z,12.15
2022-11-05T04:00:26.005Z,11.97
2022-11-05T04:02:52.541Z,11.29
2022-11-05T04:05:19.258Z,11.65
2022-11-05T04:07:45.691Z,11.58
2022-11-05T04:10:12.141Z,11.42
2022-11-05T04:12:57.660Z,11.58
2022-11-05T04:15:37.786Z,11.81
2022-11-05T04:18:04.269Z,11.82
2022-11-05T04:20:30.695Z,11.95
2022-11-05T04:23:07.017Z,12.02
2022-11-05T04:25:33.657Z,12.11
2022-11-05T04:28:00.297Z,11.96
2022-11-05T04:30:27.380Z,12.26
2022-11-05T04:32:59.755Z,12.30
2022-11-05T04:35:31.747Z,12.32
2022-11-05T04:37:58.451Z,12.42
2022-11-05T04:40:25.579Z,12.11
2022-11-05T04:42:54.026Z,12.51
2022-11-05T04:45:20.672Z,12.55
2022-11-05T04:47:47.126Z,12.54
2022-11-05T04:50:13.620Z,12.67
2022-11-05T04:52:40.203Z,12.69
2022-11-05T04:55:07.027Z,12.65
2022-11-05T04:57:34.201Z,12.55
2022-11-05T05:00:00.673Z,12.43
2022-11-05T05:02:27.799Z,12.56
2022-11-05T05:04:54.246Z,12.60
2022-11-05T05:07:20.754Z,12.69
2022-11-05T05:09:47.207Z,12.61
2022-11-05T05:12:13.661Z,12.62
2022-11-05T05:14:40.167Z,12.64
2022-11-05T05:17:06.651Z,12.61
2022-11-05T05:19:33.108Z,12.41
2022-11-05T05:21:59.566Z,12.60
2022-11-05T05:24:25.985Z,12.74
2022-11-05T05:26:52.443Z,12.72
2022-11-05T05:29:18.890Z,12.81
2022-11-05T05:31:45.364Z,12.80
2022-11-05T05:34:13.653Z,12.47
2022-11-05T05:36:40.292Z,12.60
2022-11-05T05:39:08.558Z,12.10
2022-11-05T05:41:35.017Z,12.45
2022-11-05T05:44:01.574Z,12.57
2022-11-05T05:46:28.032Z,12.06
2022-11-05T05:48:54.471Z,11.92
2022-11-05T05:51:20.946Z,12.18
2022-11-05T05:53:47.407Z,12.23
2022-11-05T05:56:13.916Z,12.39
2022-11-05T05:58:41.030Z,12.45
2022-11-05T06:01:17.224Z,12.35
2022-11-05T06:03:45.375Z,12.41
2022-11-05T06:06:13.339Z,12.41
2022-11-05T06:08:40.724Z,11.99
2022-11-05T06:11:07.826Z,12.07
2022-11-05T06:13:35.837Z,11.88
2022-11-05T06:16:09.518Z,11.84
2022-11-05T06:18:37.214Z,11.78
2022-11-05T06:21:09.373Z,11.74
2022-11-05T06:23:37.948Z,11.89
2022-11-05T06:26:07.879Z,11.89
2022-11-05T06:28:34.333Z,11.66
2022-11-05T06:31:01.376Z,11.70
2022-11-05T06:33:28.529Z,11.37
2022-11-05T06:35:58.975Z,11.62
2022-11-05T06:38:25.713Z,11.79
2022-11-05T06:40:52.190Z,11.88
2022-11-05T06:43:18.628Z,11.34
2022-11-05T06:45:45.094Z,11.22
2022-11-05T06:48:11.548Z,11.34
2022-11-05T06:50:38.033Z,11.26
2022-11-05T06:53:04.818Z,11.57
2022-11-05T06:55:31.762Z,11.78
2022-11-05T06:57:58.479Z,11.86
2022-11-05T07:00:25.146Z,11.35
2022-11-05T07:02:51.638Z,11.54
2022-11-05T07:05:18.148Z,11.64
2022-11-05T07:07:45.826Z,11.71
2022-11-05T07:10:15.697Z,11.71
2022-11-05T07:12:42.511Z,11.84
2022-11-05T07:15:10.216Z,12.00
2022-11-05T07:17:36.749Z,12.19
2022-11-05T07:20:04.410Z,12.23
2022-11-05T07:22:30.891Z,11.80
2022-11-05T07:24:57.328Z,11.94
2022-11-05T07:27:23.777Z,12.05
2022-11-05T07:29:50.257Z,11.90
2022-11-05T07:32:17.068Z,11.43
2022-11-05T07:34:43.674Z,11.10
2022-11-05T07:37:10.142Z,11.64
2022-11-05T07:39:36.586Z,11.89
2022-11-05T07:42:03.125Z,12.09
2022-11-05T07:44:29.634Z,11.91
2022-11-05T07:46:56.076Z,12.01
2022-11-05T07:49:22.505Z,12.17
2022-11-05T07:51:48.964Z,11.96
2022-11-05T07:54:15.403Z,12.15
2022-11-05T07:56:41.855Z,12.28
2022-11-05T07:59:08.770Z,12.36
2022-11-05T08:01:35.363Z,12.19
2022-11-05T08:04:01.944Z,12.12
2022-11-05T08:06:28.415Z,12.33
2022-11-05T08:08:54.898Z,12.38
2022-11-05T08:11:21.335Z,12.47
2022-11-05T08:13:47.806Z,12.55
2022-11-05T08:16:14.241Z,12.62
2022-11-05T08:18:40.695Z,12.32
2022-11-05T08:21:07.145Z,12.57
2022-11-05T08:23:33.589Z,12.71
2022-11-05T08:26:03.656Z,12.73
2022-11-05T08:28:30.953Z,12.88
2022-11-05T08:30:57.913Z,12.88
2022-11-05T08:33:25.650Z,12.57
2022-11-05T08:35:52.090Z,12.81
2022-11-05T08:38:19.818Z,12.80
2022-11-05T08:40:54.429Z,12.98
2022-11-05T08:43:21.432Z,12.94
2022-11-05T08:45:47.913Z,12.98
2022-11-05T08:48:17.383Z,13.11
2022-11-05T08:50:45.839Z,13.13
2022-11-05T08:53:13.812Z,13.10
2022-11-05T08:55:41.056Z,13.10
2022-11-05T08:58:11.584Z,12.92
2022-11-05T09:00:38.864Z,12.14
2022-11-05T09:03:07.741Z,11.54
2022-11-05T09:05:36.594Z,12.05
2022-11-05T09:08:05.235Z,12.32
2022-11-05T09:10:31.712Z,12.47
2022-11-05T09:12:58.167Z,12.65
2022-11-05T09:15:24.857Z,12.50
2022-11-05T09:17:51.625Z,12.85
2022-11-05T09:20:18.118Z,12.33
2022-11-05T09:22:44.708Z,12.57
2022-11-05T09:25:11.296Z,12.89
2022-11-05T09:27:37.861Z,12.48
2022-11-05T09:30:05.078Z,12.39
2022-11-05T09:32:32.252Z,12.42
2022-11-05T09:34:58.723Z,12.63
2022-11-05T09:37:25.163Z,12.80
2022-11-05T09:39:51.615Z,12.88
2022-11-05T09:42:22.596Z,13.19
2022-11-05T09:45:01.559Z,13.16
2022-11-05T09:47:37.983Z,13.48
2022-11-05T09:50:14.061Z,13.51
2022-11-05T09:52:40.588Z,13.51
2022-11-05T09:55:26.223Z,13.66
2022-11-05T09:58:00.178Z,13.70
2022-11-05T10:00:28.551Z,13.85
2022-11-05T10:03:07.571Z,13.87
2022-11-05T10:05:36.730Z,13.91
2022-11-05T10:08:27.075Z,14.08
2022-11-05T10:11:07.216Z,14.32
2022-11-05T10:13:40.757Z,14.32
2022-11-05T10:16:29.309Z,14.23
2022-11-05T10:19:09.679Z,13.99
2022-11-05T10:22:04.405Z,13.39
2022-11-05T10:24:23.475Z,13.42
2022-11-05T10:26:54.047Z,13.59
2022-11-05T10:29:28.138Z,13.10
2022-11-05T10:31:57.653Z,13.01
2022-11-05T10:34:33.558Z,12.69
2022-11-05T10:37:00.629Z,12.84
2022-11-05T10:39:35.024Z,13.11
2022-11-05T10:42:23.491Z,13.46
2022-11-05T10:44:59.079Z,13.64
2022-11-05T10:47:44.593Z,13.88
2022-11-05T10:50:21.615Z,14.09
2022-11-05T10:53:12.060Z,14.26
2022-11-05T10:55:50.382Z,14.36
2022-11-05T10:58:16.764Z,14.47
2022-11-05T11:00:50.765Z,14.52
2022-11-05T11:03:41.119Z,14.68
2022-11-05T11:06:25.032Z,14.72
2022-11-05T11:08:54.972Z,14.75
2022-11-05T11:11:27.118Z,14.21
2022-11-05T11:13:56.313Z,14.63
2022-11-05T11:16:29.817Z,14.88
2022-11-05T11:18:59.355Z,14.93
2022-11-05T11:21:25.936Z,14.63
2022-11-05T11:24:01.719Z,14.86
2022-11-05T11:26:35.191Z,15.10
2022-11-05T11:29:22.934Z,15.06
2022-11-05T11:31:56.130Z,15.10
2022-11-05T11:34:28.612Z,15.30
2022-11-05T11:37:15.343Z,15.33
2022-11-05T11:39:50.601Z,15.34
2022-11-05T11:42:24.036Z,15.22
2022-11-05T11:44:52.153Z,15.29
2022-11-05T11:47:22.003Z,15.45
2022-11-05T11:49:53.212Z,15.50
2022-11-05T11:52:28.816Z,15.54
2022-11-05T11:55:13.581Z,15.50
2022-11-05T11:57:47.017Z,15.38
2022-11-05T12:00:14.805Z,15.48
2022-11-05T12:02:51.170Z,15.51
2022-11-05T12:05:43.529Z,15.53
2022-11-05T12:08:30.266Z,15.61
2022-11-05T12:11:22.544Z,15.47
2022-11-05T12:14:10.554Z,15.61
2022-11-05T12:17:10.624Z,15.39
2022-11-05T12:20:03.302Z,15.75
2022-11-05T12:23:13.253Z,14.31
2022-11-05T12:25:55.998Z,13.49
2022-11-05T12:28:32.126Z,13.71
2022-11-05T12:31:13.225Z,13.96
2022-11-05T12:33:48.344Z,13.68
2022-11-05T12:36:32.309Z,13.38
2022-11-05T12:39:30.756Z,13.69
2022-11-05T12:42:10.678Z,13.11
2022-11-05T12:45:00.225Z,13.27
2022-11-05T12:47:55.584Z,12.62
2022-11-05T12:50:34.312Z,13.12
2022-11-05T12:53:23.373Z,12.96
2022-11-05T12:55:51.739Z,12.85
2022-11-05T12:58:32.499Z,13.19
2022-11-05T13:01:16.811Z,13.08
2022-11-05T13:03:57.681Z,13.42
2022-11-05T13:06:33.689Z,13.86
2022-11-05T13:09:18.843Z,13.95
2022-11-05T13:11:59.812Z,13.29
2022-11-05T13:14:42.180Z,12.93
2022-11-05T13:17:14.083Z,12.81
2022-11-05T13:19:55.771Z,12.83
2022-11-05T13:22:45.861Z,12.62
2022-11-05T13:25:20.575Z,12.96
2022-11-05T13:27:51.786Z,12.84
2022-11-05T13:30:22.433Z,13.02
2022-11-05T13:33:06.003Z,13.27
2022-11-05T13:35:43.888Z,13.20
2022-11-05T13:38:22.632Z,13.06
2022-11-05T13:41:07.490Z,12.29
2022-11-05T13:43:57.398Z,12.54
2022-11-05T13:46:56.009Z,12.85
2022-11-05T13:49:31.496Z,12.97
2022-11-05T13:52:19.689Z,13.23
2022-11-05T13:55:13.536Z,13.19
2022-11-05T13:57:55.848Z,13.18
2022-11-05T14:00:28.669Z,13.30
2022-11-05T14:03:05.266Z,13.20
2022-11-05T14:05:40.122Z,13.00
2022-11-05T14:08:17.657Z,13.03
2022-11-05T14:10:58.243Z,12.74
2022-11-05T14:13:40.574Z,12.89
2022-11-05T14:16:16.364Z,12.60
2022-11-05T14:18:46.554Z,12.67
2022-11-05T14:21:27.979Z,13.12
2022-11-05T14:23:55.999Z,13.64
2022-11-05T14:26:26.462Z,14.23
2022-11-05T14:28:58.682Z,14.66
2022-11-05T14:32:07.161Z,15.08
2022-11-05T14:34:55.141Z,15.24
2022-11-05T14:37:31.995Z,15.66
2022-11-05T14:40:21.076Z,15.73
2022-11-05T14:42:54.580Z,15.89
2022-11-05T14:45:25.761Z,15.69
2022-11-05T14:47:56.862Z,15.69
2022-11-05T14:50:42.454Z,16.02
2022-11-05T14:53:35.490Z,15.99
2022-11-05T14:56:05.590Z,15.44
2022-11-05T14:58:37.616Z,15.30
2022-11-05T15:01:29.149Z,15.14
2022-11-05T15:04:05.368Z,15.10
2022-11-05T15:06:35.227Z,14.65
2022-11-05T15:09:13.768Z,14.92
2022-11-05T15:11:48.425Z,14.86
2022-11-05T15:14:26.874Z,14.58
2022-11-05T15:16:59.534Z,14.57
2022-11-05T15:19:30.877Z,14.56
2022-11-05T15:22:03.058Z,14.66
2022-11-05T15:24:31.261Z,14.48
2022-11-05T15:27:07.968Z,14.49
2022-11-05T15:29:34.510Z,14.36
2022-11-05T15:32:01.125Z,14.14
2022-11-05T15:34:34.697Z,14.40
2022-11-05T15:37:20.109Z,14.43
2022-11-05T15:39:49.500Z,14.21
2022-11-05T15:42:25.305Z,13.91
2022-11-05T15:44:57.641Z,14.08
2022-11-05T15:47:32.937Z,14.01
2022-11-05T15:50:03.476Z,13.78
2022-11-05T15:52:47.870Z,13.53
2022-11-05T15:55:14.281Z,13.32
2022-11-05T15:57:51.293Z,13.32
2022-11-05T16:00:26.943Z,13.30
2022-11-05T16:03:06.122Z,13.08
2022-11-05T16:05:35.743Z,12.59
2022-11-05T16:08:02.974Z,12.58
2022-11-05T16:10:33.446Z,12.97
2022-11-05T16:13:32.256Z,12.82
2022-11-05T16:16:21.223Z,12.60
2022-11-05T16:18:48.240Z,12.44
2022-11-05T16:21:17.379Z,12.10
2022-11-05T16:23:45.967Z,12.06
2022-11-05T16:29:28.405Z,11.64
2022-11-05T16:31:57.678Z,11.60
2022-11-05T16:34:37.214Z,11.48
2022-11-05T16:37:06.515Z,11.34
2022-11-05T16:39:33.835Z,11.26
2022-11-05T16:42:00.291Z,11.51
2022-11-05T16:44:26.736Z,11.64
2022-11-05T16:46:53.375Z,11.36
2022-11-05T16:49:20.381Z,10.87
2022-11-05T16:51:46.825Z,11.17
2022-11-05T16:54:13.265Z,11.22
2022-11-05T16:56:39.852Z,11.51
2022-11-05T16:59:10.093Z,11.47
2022-11-05T17:01:40.470Z,11.64
2022-11-05T17:04:10.989Z,11.93
2022-11-05T17:06:37.443Z,11.66
2022-11-05T17:09:03.894Z,11.61
2022-11-05T17:11:30.351Z,11.38
2022-11-05T17:13:56.806Z,11.52
2022-11-05T17:16:23.265Z,11.48
2022-11-05T17:18:49.754Z,11.08
2022-11-05T17:21:16.186Z,10.97
2022-11-05T17:23:42.761Z,11.03
2022-11-05T17:26:11.747Z,10.91
2022-11-05T17:28:39.520Z,10.99
2022-11-05T17:31:08.413Z,10.83
2022-11-05T17:33:35.199Z,11.09
2022-11-05T17:36:10.254Z,10.71
2022-11-05T17:38:36.994Z,10.47
2022-11-05T17:41:13.907Z,10.33
2022-11-05T17:43:40.967Z,10.42
2022-11-05T17:46:10.001Z,10.19
2022-11-05T17:48:38.152Z,9.98
2022-11-05T17:51:12.450Z,10.18
2022-11-05T17:53:39.079Z,10.08
2022-11-05T17:56:12.813Z,10.20
2022-11-05T17:58:39.746Z,10.32
2022-11-05T18:01:08.646Z,10.12
2022-11-05T18:03:35.248Z,10.33
2022-11-05T18:06:03.666Z,10.06
2022-11-05T18:08:30.559Z,10.14
2022-11-05T18:10:57.265Z,10.20
2022-11-05T18:13:23.761Z,9.84
2022-11-05T18:15:53.781Z,9.82
2022-11-05T18:18:21.408Z,9.74
2022-11-05T18:20:47.841Z,9.78
2022-11-05T18:23:14.669Z,9.81
2022-11-05T18:25:43.277Z,9.95
2022-11-05T18:28:10.072Z,9.91
2022-11-05T18:30:38.769Z,9.99
2022-11-05T18:33:05.272Z,10.19
2022-11-05T18:35:31.720Z,10.01
2022-11-05T18:37:58.181Z,9.98
2022-11-05T18:40:24.700Z,10.02
2022-11-05T18:42:51.132Z,10.17
2022-11-05T18:45:17.587Z,9.83
2022-11-05T18:47:44.029Z,9.86
2022-11-05T18:50:10.560Z,10.00
2022-11-05T18:52:39.773Z,10.13
2022-11-05T18:55:06.966Z,10.08
2022-11-05T18:57:34.042Z,10.24
2022-11-05T19:00:00.961Z,10.02
2022-11-05T19:02:27.455Z,10.28
2022-11-05T19:05:27.588Z,9.98
2022-11-05T19:07:40.710Z,9.76
2022-11-05T19:10:08.048Z,9.59
2022-11-05T19:12:34.521Z,9.83
2022-11-05T19:15:02.687Z,9.65
2022-11-05T19:17:32.189Z,9.83
2022-11-05T19:19:58.629Z,9.66
2022-11-05T19:22:25.098Z,10.20
2022-11-05T19:24:52.082Z,10.18
2022-11-05T19:27:18.604Z,10.15
2022-11-05T19:29:45.045Z,10.04
2022-11-05T19:32:11.495Z,10.20
2022-11-05T19:34:38.025Z,10.08
2022-11-05T19:37:04.492Z,10.04
2022-11-05T19:39:31.014Z,10.24
2022-11-05T19:42:03.006Z,10.17
2022-11-05T19:44:30.586Z,10.27
2022-11-05T19:46:57.234Z,10.11
2022-11-05T19:49:23.687Z,9.90
2022-11-05T19:51:50.454Z,9.83
2022-11-05T19:54:16.913Z,9.67
2022-11-05T19:56:43.371Z,9.60
2022-11-05T19:59:11.474Z,9.73
2022-11-05T20:01:38.108Z,9.52
2022-11-05T20:04:05.384Z,9.39
2022-11-05T20:06:37.935Z,9.27
2022-11-05T20:09:24.749Z,9.10
2022-11-05T20:11:52.621Z,9.54
2022-11-05T20:14:19.104Z,9.75
2022-11-05T20:16:46.609Z,9.89
2022-11-05T20:19:15.543Z,9.78
2022-11-05T20:21:42.119Z,10.01
2022-11-05T20:24:11.621Z,9.82
2022-11-05T20:26:38.964Z,10.00
2022-11-05T20:29:05.775Z,9.92
2022-11-05T20:31:32.247Z,10.01
2022-11-05T20:33:58.857Z,9.78
2022-11-05T20:36:26.131Z,9.68
2022-11-05T20:38:56.251Z,10.02
2022-11-05T20:41:23.424Z,10.39
2022-11-05T20:43:50.609Z,10.60
2022-11-05T20:46:19.596Z,10.80
2022-11-05T20:48:46.208Z,10.99
2022-11-05T20:51:15.852Z,11.16
2022-11-05T20:53:43.596Z,11.29
2022-11-05T20:56:22.068Z,11.37
2022-11-05T20:58:48.878Z,11.43
2022-11-05T21:01:15.907Z,11.47
2022-11-05T21:03:43.929Z,11.46
2022-11-05T21:06:10.839Z,11.41
2022-11-05T21:08:38.085Z,10.71
2022-11-05T21:11:04.974Z,9.94
2022-11-05T21:13:31.454Z,10.18
2022-11-05T21:16:00.395Z,10.00
2022-11-05T21:18:30.003Z,9.80
2022-11-05T21:20:57.367Z,10.08
2022-11-05T21:23:23.810Z,10.19
2022-11-05T21:25:50.329Z,10.36
2022-11-05T21:28:17.112Z,10.63
2022-11-05T21:30:45.952Z,10.33
2022-11-05T21:33:13.932Z,10.44
2022-11-05T21:35:42.427Z,10.75
2022-11-05T21:38:09.271Z,10.83
2022-11-05T21:40:36.502Z,10.96
2022-11-05T21:43:03.747Z,11.10
2022-11-05T21:45:30.293Z,11.09
2022-11-05T21:47:56.795Z,10.92
2022-11-05T21:50:23.632Z,10.90
2022-11-05T21:52:50.085Z,10.80
2022-11-05T21:55:16.551Z,10.55
2022-11-05T21:57:43.127Z,9.96
2022-11-05T22:00:11.069Z,10.09
2022-11-05T22:02:38.017Z,10.31
2022-11-05T22:05:05.920Z,10.56
2022-11-05T22:07:37.138Z,10.63
2022-11-05T22:10:06.378Z,10.78
2022-11-05T22:12:32.995Z,10.89
2022-11-05T22:14:59.619Z,11.02
2022-11-05T22:17:26.234Z,11.00
2022-11-05T22:19:52.689Z,11.02
2022-11-05T22:22:19.284Z,11.06
2022-11-05T22:24:46.035Z,11.04
2022-11-05T22:27:15.369Z,11.11
2022-11-05T22:29:42.339Z,10.99
2022-11-05T22:32:10.835Z,10.99
2022-11-05T22:34:37.507Z,10.82
2022-11-05T22:37:04.656Z,10.75
2022-11-05T22:39:31.232Z,10.55
2022-11-05T22:41:58.872Z,10.14
2022-11-05T22:44:26.821Z,9.90
2022-11-05T22:46:54.134Z,9.92
2022-11-05T22:49:20.587Z,9.76
2022-11-05T22:51:47.251Z,10.00
2022-11-05T22:54:13.898Z,9.84
2022-11-05T22:56:42.511Z,9.74
2022-11-05T22:59:14.125Z,9.48
2022-11-05T23:01:42.224Z,9.43
2022-11-05T23:04:08.806Z,9.73
2022-11-05T23:06:35.407Z,9.80
2022-11-05T23:09:07.838Z,10.00
2022-11-05T23:11:34.299Z,9.96
2022-11-05T23:14:02.188Z,10.19
2022-11-05T23:16:29.138Z,10.27
2022-11-05T23:18:55.582Z,10.43
2022-11-05T23:21:23.331Z,10.49
2022-11-05T23:23:50.091Z,10.52
2022-11-05T23:26:16.530Z,10.61
2022-11-05T23:28:42.982Z,10.32
2022-11-05T23:31:09.444Z,10.17
2022-11-05T23:33:35.947Z,9.97
2022-11-05T23:36:03.029Z,9.80
2022-11-05T23:38:29.461Z,9.80
2022-11-05T23:41:02.666Z,9.55
2022-11-05T23:43:29.155Z,9.21
2022-11-05T23:45:58.532Z,9.01
2022-11-05T23:48:28.004Z,9.07
2022-11-05T23:51:07.644Z,9.12
2022-11-05T23:53:37.200Z,9.04
2022-11-05T23:56:12.492Z,9.03
2022-11-05T23:58:40.579Z,8.95
